Time;durP1;ratioP1;P1;durP2;ratioP2;P2;SDS_P1;SDS_P2;PMS_P1;PMS_P2;Temp;Humidity;BMP_temperature;BMP_pressure;BME280_temperature;BME280_humidity;BME280_pressure;Samples;Min_cycle;Max_cycle;Signal;HPM_P1;HPM_P2
2021/12/09 00:01:03;;;;;;;;;;;24.40;26.10;;;;;;489252;244;1278;-77
2021/12/09 00:03:07;;;;;;;;;;;24.40;26.10;;;;;;492497;242;1117;-77
2021/12/09 00:05:07;;;;;;;;;;;24.40;26.10;;;;;;489600;244;1504;-77
2021/12/09 00:07:08;;;;;;;;;;;24.30;26.10;;;;;;492505;242;1210;-77
2021/12/09 00:09:09;;;;;;;;;;;24.50;26.10;;;;;;489539;243;1119;-77
2021/12/09 00:11:11;;;;;;;;;;;24.10;26.20;;;;;;492550;242;1188;-77
2021/12/09 00:13:12;;;;;;;;;;;24.00;26.30;;;;;;492588;241;1307;-77
2021/12/09 00:15:13;;;;;;;;;;;24.10;26.40;;;;;;489607;244;1118;-77
2021/12/09 00:17:15;;;;;;;;;;;24.00;26.40;;;;;;492650;242;2180;-77
2021/12/09 00:19:16;;;;;;;;;;;24.30;26.40;;;;;;489467;244;1128;-77
2021/12/09 00:21:17;;;;;;;;;;;24.10;26.40;;;;;;492467;242;1221;-77
2021/12/09 00:23:19;;;;;;;;;;;24.10;26.30;;;;;;489562;243;1177;-77
2021/12/09 00:25:20;;;;;;;;;;;23.90;26.50;;;;;;492538;242;1055;-77
2021/12/09 00:27:22;;;;;;;;;;;23.90;26.50;;;;;;489426;244;1105;-77
2021/12/09 00:29:23;;;;;;;;;;;23.90;26.50;;;;;;492467;242;1156;-77
2021/12/09 00:31:25;;;;;;;;;;;23.90;26.70;;;;;;489468;243;1109;-77
2021/12/09 00:33:25;;;;;;;;;;;23.80;26.70;;;;;;492479;242;1067;-77
2021/12/09 00:35:31;;;;;;;;;;;23.70;26.70;;;;;;489510;243;1184;-77
2021/12/09 00:37:37;;;;;;;;;;;23.70;26.70;;;;;;492462;242;2183;-77
2021/12/09 00:39:30;;;;;;;;;;;23.80;26.70;;;;;;488855;244;1352;-77
2021/12/09 00:41:31;;;;;;;;;;;23.70;26.70;;;;;;492644;242;1131;-77
2021/12/09 00:43:32;;;;;;;;;;;23.60;26.80;;;;;;489692;243;1138;-77
2021/12/09 00:45:34;;;;;;;;;;;23.70;26.90;;;;;;492686;242;1165;-77
2021/12/09 00:47:35;;;;;;;;;;;23.70;26.80;;;;;;489515;244;1114;-77
2021/12/09 00:49:36;;;;;;;;;;;23.80;26.70;;;;;;492522;242;1114;-77
2021/12/09 00:51:38;;;;;;;;;;;23.80;26.70;;;;;;489473;243;1138;-77
2021/12/09 00:53:39;;;;;;;;;;;23.80;26.80;;;;;;492639;242;1185;-77
2021/12/09 00:55:40;;;;;;;;;;;23.80;26.70;;;;;;481763;246;1033;-77
2021/12/09 00:57:42;;;;;;;;;;;23.80;26.70;;;;;;492549;240;2191;-77
2021/12/09 00:59:43;;;;;;;;;;;23.80;26.80;;;;;;489570;244;1071;-77
2021/12/09 01:01:44;;;;;;;;;;;23.80;26.80;;;;;;492509;242;1030;-77
2021/12/09 01:03:46;;;;;;;;;;;24.10;26.60;;;;;;489426;244;1399;-77
2021/12/09 01:05:47;;;;;;;;;;;24.30;26.40;;;;;;492553;242;1182;-77
2021/12/09 01:07:48;;;;;;;;;;;24.20;26.40;;;;;;492514;241;1024;-77
2021/12/09 01:09:50;;;;;;;;;;;24.00;26.50;;;;;;489681;243;1070;-77
2021/12/09 01:11:51;;;;;;;;;;;24.50;26.30;;;;;;492444;242;1028;-77
2021/12/09 01:13:52;;;;;;;;;;;24.30;26.20;;;;;;489509;244;1086;-77
2021/12/09 01:15:54;;;;;;;;;;;24.20;26.40;;;;;;492426;242;1023;-77
2021/12/09 01:17:55;;;;;;;;;;;24.20;26.40;;;;;;489523;243;2193;-77
2021/12/09 01:19:56;;;;;;;;;;;24.30;26.50;;;;;;492493;242;1118;-77
2021/12/09 01:21:58;;;;;;;;;;;24.30;26.40;;;;;;489451;244;1203;-77
2021/12/09 01:23:59;;;;;;;;;;;24.40;26.30;;;;;;492518;242;1051;-77
2021/12/09 01:26:02;;;;;;;;;;;24.50;26.30;;;;;;489596;244;1204;-77
2021/12/09 01:28:02;;;;;;;;;;;24.30;26.20;;;;;;492422;242;1481;-77
2021/12/09 01:30:08;;;;;;;;;;;24.20;26.40;;;;;;489544;244;1033;-77
2021/12/09 01:32:07;;;;;;;;;;;24.30;26.40;;;;;;491965;242;1426;-77
2021/12/09 01:34:08;;;;;;;;;;;24.50;26.20;;;;;;492598;242;1528;-77
2021/12/09 01:36:07;;;;;;;;;;;24.50;26.20;;;;;;492372;242;1405;-77
2021/12/09 01:38:12;;;;;;;;;;;24.50;26.30;;;;;;489543;243;2177;-77
2021/12/09 01:40:10;;;;;;;;;;;24.40;26.20;;;;;;492330;242;1245;-77
2021/12/09 01:42:11;;;;;;;;;;;24.50;26.30;;;;;;489496;244;1267;-77
2021/12/09 01:44:13;;;;;;;;;;;24.40;26.30;;;;;;492549;242;1035;-77
2021/12/09 01:46:14;;;;;;;;;;;24.40;26.30;;;;;;489728;243;1519;-77
2021/12/09 01:48:16;;;;;;;;;;;24.40;26.20;;;;;;492634;242;1173;-77
2021/12/09 01:50:17;;;;;;;;;;;24.60;26.10;;;;;;489514;244;1157;-77
2021/12/09 01:52:19;;;;;;;;;;;24.30;26.30;;;;;;492640;242;1107;-77
2021/12/09 01:54:23;;;;;;;;;;;24.30;26.20;;;;;;489503;244;1071;-77
2021/12/09 01:56:21;;;;;;;;;;;24.20;26.40;;;;;;492511;238;1423;-77
2021/12/09 01:58:23;;;;;;;;;;;24.40;26.30;;;;;;489694;244;2184;-77
2021/12/09 02:00:24;;;;;;;;;;;24.50;26.20;;;;;;492696;242;1020;-77
2021/12/09 02:02:26;;;;;;;;;;;24.20;26.30;;;;;;489506;244;1067;-77
2021/12/09 02:04:27;;;;;;;;;;;24.30;26.50;;;;;;492551;242;1059;-77
2021/12/09 02:06:28;;;;;;;;;;;24.20;26.40;;;;;;489512;243;1204;-77
2021/12/09 02:08:29;;;;;;;;;;;24.50;26.30;;;;;;492505;242;1038;-77
2021/12/09 02:10:31;;;;;;;;;;;24.40;26.20;;;;;;489501;244;998;-77
2021/12/09 02:12:32;;;;;;;;;;;24.30;26.40;;;;;;492492;242;1049;-77
2021/12/09 02:14:34;;;;;;;;;;;24.30;26.40;;;;;;489543;243;1266;-77
2021/12/09 02:16:35;;;;;;;;;;;24.20;26.40;;;;;;492434;242;2191;-77
2021/12/09 02:18:36;;;;;;;;;;;24.50;26.20;;;;;;489483;244;1020;-77
2021/12/09 02:20:38;;;;;;;;;;;24.50;26.20;;;;;;492534;242;1166;-77
2021/12/09 02:22:43;;;;;;;;;;;24.50;26.10;;;;;;489489;244;1400;-77
2021/12/09 02:24:40;;;;;;;;;;;24.60;26.20;;;;;;492178;242;1363;-77
2021/12/09 02:26:42;;;;;;;;;;;24.40;26.30;;;;;;489459;244;1518;-77
2021/12/09 02:28:43;;;;;;;;;;;24.40;26.30;;;;;;492547;242;1030;-77
2021/12/09 02:30:44;;;;;;;;;;;24.50;26.10;;;;;;492592;241;1411;-77
2021/12/09 02:32:45;;;;;;;;;;;24.50;26.20;;;;;;489529;243;1043;-77
2021/12/09 02:34:47;;;;;;;;;;;24.40;26.30;;;;;;492543;242;985;-77
2021/12/09 02:36:50;;;;;;;;;;;24.60;26.20;;;;;;489483;243;2149;-77
2021/12/09 02:38:50;;;;;;;;;;;24.40;26.20;;;;;;492331;242;1438;-77
2021/12/09 02:40:51;;;;;;;;;;;24.10;26.50;;;;;;489480;240;1372;-77
2021/12/09 02:42:52;;;;;;;;;;;24.40;26.40;;;;;;492480;242;1145;-77
2021/12/09 02:44:55;;;;;;;;;;;24.30;26.30;;;;;;489544;243;1313;-77
2021/12/09 02:46:56;;;;;;;;;;;24.50;26.30;;;;;;492563;242;1323;-77
2021/12/09 02:48:57;;;;;;;;;;;24.60;26.10;;;;;;489530;244;1043;-77
2021/12/09 02:50:58;;;;;;;;;;;24.40;26.20;;;;;;492493;242;1169;-77
2021/12/09 02:53:00;;;;;;;;;;;24.50;26.20;;;;;;489449;243;1018;-77
2021/12/09 02:55:01;;;;;;;;;;;24.50;26.10;;;;;;492459;242;988;-77
2021/12/09 02:57:02;;;;;;;;;;;24.40;26.30;;;;;;489391;244;2134;-77
2021/12/09 02:59:04;;;;;;;;;;;24.30;26.30;;;;;;492543;242;959;-77
2021/12/09 03:01:07;;;;;;;;;;;24.30;26.40;;;;;;489694;244;1481;-77
2021/12/09 03:03:08;;;;;;;;;;;24.00;26.50;;;;;;492284;242;1393;-77
2021/12/09 03:05:08;;;;;;;;;;;23.90;26.70;;;;;;489620;244;1324;-77
2021/12/09 03:07:09;;;;;;;;;;;23.90;26.70;;;;;;492448;242;1420;-77
2021/12/09 03:09:11;;;;;;;;;;;24.00;26.70;;;;;;489502;244;1057;-77
2021/12/09 03:11:12;;;;;;;;;;;24.00;26.60;;;;;;492505;242;1103;-77
2021/12/09 03:13:13;;;;;;;;;;;24.00;26.60;;;;;;489493;244;1039;-77
2021/12/09 03:15:15;;;;;;;;;;;23.90;26.60;;;;;;492477;242;992;-77
2021/12/09 03:17:17;;;;;;;;;;;24.00;26.70;;;;;;492599;241;2187;-77
2021/12/09 03:19:18;;;;;;;;;;;23.90;26.60;;;;;;489501;244;1014;-77
2021/12/09 03:21:19;;;;;;;;;;;24.00;26.60;;;;;;492636;242;1258;-77
2021/12/09 03:23:22;;;;;;;;;;;24.00;26.50;;;;;;492530;241;988;-77
2021/12/09 03:25:22;;;;;;;;;;;24.10;26.60;;;;;;489687;244;1275;-77
2021/12/09 03:27:23;;;;;;;;;;;24.00;26.60;;;;;;492451;242;1107;-77
2021/12/09 03:29:25;;;;;;;;;;;23.90;26.70;;;;;;489465;244;1020;-77
2021/12/09 03:31:26;;;;;;;;;;;24.00;26.60;;;;;;492520;238;1239;-77
2021/12/09 03:33:27;;;;;;;;;;;24.00;26.60;;;;;;489528;244;1036;-77
2021/12/09 03:35:29;;;;;;;;;;;23.90;26.60;;;;;;492491;242;1034;-77
2021/12/09 03:37:30;;;;;;;;;;;24.00;26.60;;;;;;489437;243;2197;-77
2021/12/09 03:39:31;;;;;;;;;;;23.90;26.70;;;;;;492456;242;1258;-77
2021/12/09 03:41:33;;;;;;;;;;;24.00;26.70;;;;;;489444;243;1240;-77
2021/12/09 03:43:34;;;;;;;;;;;23.90;26.70;;;;;;492468;242;1112;-77
2021/12/09 03:45:36;;;;;;;;;;;23.90;26.70;;;;;;481749;246;951;-77
2021/12/09 03:47:37;;;;;;;;;;;24.10;26.60;;;;;;492485;240;1238;-77
2021/12/09 03:49:38;;;;;;;;;;;24.10;26.50;;;;;;489490;243;958;-77
2021/12/09 03:51:40;;;;;;;;;;;24.20;26.50;;;;;;490326;242;1190;-77
2021/12/09 03:53:41;;;;;;;;;;;24.30;26.40;;;;;;487330;244;1098;-77
2021/12/09 03:55:42;;;;;;;;;;;24.20;26.40;;;;;;487306;243;1080;-77
2021/12/09 03:57:44;;;;;;;;;;;24.20;26.50;;;;;;487595;243;2194;-77
2021/12/09 03:59:46;;;;;;;;;;;24.30;26.50;;;;;;487438;243;1044;-77
2021/12/09 04:01:47;;;;;;;;;;;24.30;26.40;;;;;;487338;243;979;-77
2021/12/09 04:03:48;;;;;;;;;;;24.40;26.30;;;;;;487526;243;977;-77
2021/12/09 04:05:50;;;;;;;;;;;24.40;26.30;;;;;;487301;245;1099;-77
2021/12/09 04:07:51;;;;;;;;;;;24.10;26.40;;;;;;487331;242;1149;-77
2021/12/09 04:09:53;;;;;;;;;;;24.30;26.40;;;;;;487321;243;1091;-77
2021/12/09 04:11:54;;;;;;;;;;;24.30;26.40;;;;;;487382;243;1088;-77
2021/12/09 04:13:55;;;;;;;;;;;24.10;26.50;;;;;;487386;243;1306;-77
2021/12/09 04:15:57;;;;;;;;;;;24.10;26.50;;;;;;487387;244;1034;-77
2021/12/09 04:17:58;;;;;;;;;;;24.30;26.40;;;;;;487360;243;2126;-77
2021/12/09 04:19:59;;;;;;;;;;;24.30;26.40;;;;;;487405;243;1067;-77
2021/12/09 04:22:01;;;;;;;;;;;24.20;26.40;;;;;;487385;244;1113;-77
2021/12/09 04:24:07;;;;;;;;;;;24.20;26.40;;;;;;487392;243;1110;-77
2021/12/09 04:26:04;;;;;;;;;;;24.30;26.40;;;;;;487091;240;1422;-77
2021/12/09 04:28:05;;;;;;;;;;;24.20;26.40;;;;;;487535;243;1051;-77
2021/12/09 04:30:06;;;;;;;;;;;24.10;26.40;;;;;;487403;243;1028;-77
2021/12/09 04:32:08;;;;;;;;;;;24.30;26.30;;;;;;487325;244;1214;-77
2021/12/09 04:34:09;;;;;;;;;;;24.40;26.30;;;;;;487540;244;1114;-77
2021/12/09 04:36:10;;;;;;;;;;;24.40;26.20;;;;;;487328;244;1226;-77
2021/12/09 04:38:12;;;;;;;;;;;24.10;26.40;;;;;;487381;243;2205;-77
2021/12/09 04:40:13;;;;;;;;;;;24.30;26.40;;;;;;487409;243;1112;-77
2021/12/09 04:42:14;;;;;;;;;;;24.30;26.40;;;;;;487386;244;1102;-77
2021/12/09 04:44:16;;;;;;;;;;;24.30;26.30;;;;;;487520;244;972;-77
2021/12/09 04:46:17;;;;;;;;;;;24.30;26.40;;;;;;487464;243;1572;-77
2021/12/09 04:48:19;;;;;;;;;;;24.20;26.50;;;;;;487544;244;1217;-77
2021/12/09 04:50:20;;;;;;;;;;;24.30;26.40;;;;;;487323;243;1013;-77
2021/12/09 04:52:21;;;;;;;;;;;24.30;26.30;;;;;;487428;243;1185;-77
2021/12/09 04:54:23;;;;;;;;;;;24.40;26.30;;;;;;487450;243;1099;-77
2021/12/09 04:56:24;;;;;;;;;;;24.40;26.30;;;;;;487464;243;1639;-77
2021/12/09 04:58:25;;;;;;;;;;;24.40;26.30;;;;;;487384;242;2123;-77
2021/12/09 05:00:27;;;;;;;;;;;24.30;26.20;;;;;;487387;243;996;-77
2021/12/09 05:02:36;;;;;;;;;;;24.30;26.30;;;;;;487380;243;982;-77
2021/12/09 05:04:29;;;;;;;;;;;24.40;26.40;;;;;;486870;244;1439;-77
2021/12/09 05:06:31;;;;;;;;;;;24.30;26.30;;;;;;487554;241;1012;-77
2021/12/09 05:08:33;;;;;;;;;;;24.20;26.30;;;;;;487405;242;1167;-77
2021/12/09 05:10:36;;;;;;;;;;;24.30;26.40;;;;;;487310;244;1406;-77
2021/12/09 05:12:35;;;;;;;;;;;24.10;26.40;;;;;;487304;242;1473;-77
2021/12/09 05:14:36;;;;;;;;;;;24.10;26.40;;;;;;487333;242;1070;-77
2021/12/09 05:16:37;;;;;;;;;;;24.30;26.40;;;;;;487338;243;1053;-77
2021/12/09 05:18:39;;;;;;;;;;;24.20;26.40;;;;;;487665;242;2205;-77
2021/12/09 05:20:40;;;;;;;;;;;24.10;26.50;;;;;;487421;243;1027;-77
2021/12/09 05:22:41;;;;;;;;;;;24.20;26.40;;;;;;487631;243;1192;-77
2021/12/09 05:24:43;;;;;;;;;;;24.10;26.40;;;;;;487315;243;1031;-77
2021/12/09 05:26:46;;;;;;;;;;;24.00;26.50;;;;;;487207;243;1496;-77
2021/12/09 05:28:52;;;;;;;;;;;24.10;26.50;;;;;;487173;242;2045;-77
2021/12/09 05:33:06;;;;;;;;;;;24.00;26.60;;;;;;487310;242;1127;-77
2021/12/09 05:35:08;;;;;;;;;;;23.90;26.60;;;;;;487527;243;1060;-78
2021/12/09 05:37:08;;;;;;;;;;;23.90;26.60;;;;;;487448;243;1456;-77
2021/12/09 05:39:10;;;;;;;;;;;23.90;26.70;;;;;;487472;244;2151;-77
2021/12/09 05:41:11;;;;;;;;;;;24.00;26.50;;;;;;487236;244;1202;-77
2021/12/09 05:43:12;;;;;;;;;;;24.10;26.40;;;;;;487166;243;1069;-77
2021/12/09 05:45:14;;;;;;;;;;;23.90;26.70;;;;;;487217;243;1602;-78
2021/12/09 05:47:15;;;;;;;;;;;23.80;26.70;;;;;;487279;243;1173;-77
2021/12/09 05:49:16;;;;;;;;;;;24.00;26.70;;;;;;487366;244;1028;-77
2021/12/09 05:51:18;;;;;;;;;;;23.90;26.60;;;;;;487303;243;1187;-77
2021/12/09 05:53:19;;;;;;;;;;;24.00;26.60;;;;;;487371;243;1213;-77
2021/12/09 05:55:20;;;;;;;;;;;23.90;26.60;;;;;;487242;243;1119;-77
2021/12/09 05:57:22;;;;;;;;;;;24.10;26.50;;;;;;487341;243;1028;-77
2021/12/09 05:59:23;;;;;;;;;;;24.00;26.50;;;;;;487324;244;2178;-77
2021/12/09 06:01:24;;;;;;;;;;;24.00;26.50;;;;;;487198;243;1091;-77
2021/12/09 06:03:26;;;;;;;;;;;23.90;26.50;;;;;;487125;243;968;-77
2021/12/09 06:05:27;;;;;;;;;;;24.00;26.60;;;;;;487134;243;1211;-77
2021/12/09 06:07:28;;;;;;;;;;;24.30;26.40;;;;;;487195;243;1241;-77
2021/12/09 06:09:30;;;;;;;;;;;24.20;26.30;;;;;;487304;243;1163;-77
2021/12/09 06:11:31;;;;;;;;;;;24.10;26.40;;;;;;487242;243;1032;-77
2021/12/09 06:13:33;;;;;;;;;;;23.90;26.50;;;;;;487252;243;1052;-77
2021/12/09 06:15:33;;;;;;;;;;;23.80;26.70;;;;;;487082;244;1494;-77
2021/12/09 06:17:35;;;;;;;;;;;23.80;26.70;;;;;;487087;244;989;-77
2021/12/09 06:19:36;;;;;;;;;;;23.60;26.90;;;;;;487366;243;2127;-77
2021/12/09 06:21:37;;;;;;;;;;;23.50;27.00;;;;;;487250;243;1409;-77
2021/12/09 06:23:39;;;;;;;;;;;23.50;27.10;;;;;;487239;243;1229;-77
2021/12/09 06:25:40;;;;;;;;;;;23.50;27.00;;;;;;487171;243;1072;-77
2021/12/09 06:27:41;;;;;;;;;;;23.50;27.00;;;;;;487034;243;1143;-77
2021/12/09 06:29:43;;;;;;;;;;;23.50;27.10;;;;;;486951;243;1201;-77
2021/12/09 06:31:44;;;;;;;;;;;23.30;27.10;;;;;;486976;244;1366;-77
2021/12/09 06:33:45;;;;;;;;;;;23.40;27.20;;;;;;487079;243;1241;-77
2021/12/09 06:35:47;;;;;;;;;;;23.40;27.10;;;;;;487018;243;1168;-77
2021/12/09 06:37:48;;;;;;;;;;;23.50;27.10;;;;;;487163;243;1059;-77
2021/12/09 06:39:49;;;;;;;;;;;23.30;27.10;;;;;;487291;243;2218;-77
2021/12/09 06:41:51;;;;;;;;;;;23.40;27.10;;;;;;487103;244;1074;-77
2021/12/09 06:43:52;;;;;;;;;;;23.30;27.20;;;;;;486984;243;1037;-77
2021/12/09 06:45:53;;;;;;;;;;;23.30;27.20;;;;;;486966;243;1091;-77
2021/12/09 06:47:55;;;;;;;;;;;23.30;27.20;;;;;;487026;243;1351;-77
2021/12/09 06:49:57;;;;;;;;;;;23.30;27.20;;;;;;487028;243;999;-77
2021/12/09 06:51:57;;;;;;;;;;;23.20;27.20;;;;;;487027;242;1417;-77
2021/12/09 06:53:58;;;;;;;;;;;23.20;27.30;;;;;;487330;243;1119;-77
2021/12/09 06:56:00;;;;;;;;;;;23.40;27.20;;;;;;486961;243;1223;-77
2021/12/09 06:58:01;;;;;;;;;;;23.40;27.10;;;;;;487022;240;1274;-77
2021/12/09 07:00:02;;;;;;;;;;;23.30;27.10;;;;;;487082;242;2104;-77
2021/12/09 07:02:04;;;;;;;;;;;23.20;27.30;;;;;;487054;243;1121;-77
2021/12/09 07:04:05;;;;;;;;;;;23.20;27.30;;;;;;486955;242;1146;-77
2021/12/09 07:06:08;;;;;;;;;;;23.20;27.30;;;;;;486905;242;1080;-77
2021/12/09 07:08:08;;;;;;;;;;;23.20;27.30;;;;;;486977;242;1485;-78
2021/12/09 07:10:09;;;;;;;;;;;23.20;27.30;;;;;;487037;243;1181;-77
2021/12/09 07:12:10;;;;;;;;;;;23.20;27.40;;;;;;487032;242;1078;-77
2021/12/09 07:14:12;;;;;;;;;;;23.20;27.30;;;;;;487142;243;1109;-77
2021/12/09 07:16:13;;;;;;;;;;;23.20;27.40;;;;;;486654;244;1259;-77
2021/12/09 07:18:14;;;;;;;;;;;23.20;27.30;;;;;;486852;244;1113;-78
2021/12/09 07:20:16;;;;;;;;;;;23.20;27.30;;;;;;486909;243;2302;-77
2021/12/09 07:22:17;;;;;;;;;;;23.30;27.30;;;;;;486755;243;1156;-77
2021/12/09 07:24:18;;;;;;;;;;;23.30;27.30;;;;;;486935;243;1057;-77
2021/12/09 07:26:20;;;;;;;;;;;23.30;27.30;;;;;;486877;243;1116;-77
2021/12/09 07:28:21;;;;;;;;;;;23.20;27.30;;;;;;486867;243;957;-77
2021/12/09 07:30:22;;;;;;;;;;;23.30;27.30;;;;;;486818;240;1249;-77
2021/12/09 07:32:24;;;;;;;;;;;23.30;27.30;;;;;;486802;243;1082;-77
2021/12/09 07:34:25;;;;;;;;;;;23.40;27.20;;;;;;486910;243;1041;-77
2021/12/09 07:36:26;;;;;;;;;;;23.30;27.20;;;;;;486928;243;1167;-77
2021/12/09 07:38:28;;;;;;;;;;;23.30;27.30;;;;;;487149;243;2185;-77
2021/12/09 07:40:29;;;;;;;;;;;23.30;27.30;;;;;;487088;243;1267;-77
2021/12/09 07:42:30;;;;;;;;;;;23.60;27.20;;;;;;486780;243;1161;-77
2021/12/09 07:44:31;;;;;;;;;;;23.40;27.20;;;;;;486766;243;1223;-77
2021/12/09 07:46:33;;;;;;;;;;;23.30;27.30;;;;;;486787;240;1128;-77
2021/12/09 07:48:34;;;;;;;;;;;23.20;27.30;;;;;;486846;244;1123;-77
2021/12/09 07:50:35;;;;;;;;;;;23.30;27.30;;;;;;486885;244;1046;-77
2021/12/09 07:52:37;;;;;;;;;;;23.40;27.30;;;;;;487020;243;1148;-77
2021/12/09 07:54:38;;;;;;;;;;;23.50;27.20;;;;;;486835;243;1141;-77
2021/12/09 07:56:39;;;;;;;;;;;23.40;27.10;;;;;;486816;240;1354;-77
2021/12/09 07:58:41;;;;;;;;;;;23.40;27.20;;;;;;486686;243;2150;-77
2021/12/09 08:00:42;;;;;;;;;;;23.30;27.30;;;;;;486580;243;1191;-77
2021/12/09 08:02:43;;;;;;;;;;;23.40;27.30;;;;;;487096;243;1314;-77
2021/12/09 08:04:45;;;;;;;;;;;23.30;27.30;;;;;;486682;244;1361;-76
2021/12/09 08:06:46;;;;;;;;;;;23.40;27.30;;;;;;486706;243;1151;-77
2021/12/09 08:08:47;;;;;;;;;;;23.30;27.40;;;;;;486841;243;1426;-77
2021/12/09 08:10:49;;;;;;;;;;;23.50;27.20;;;;;;486767;243;1108;-77
2021/12/09 08:12:50;;;;;;;;;;;23.60;27.20;;;;;;486721;243;1342;-77
2021/12/09 08:14:51;;;;;;;;;;;23.60;27.10;;;;;;486791;242;1033;-77
2021/12/09 08:17:09;;;;;;;;;;;23.50;27.10;;;;;;486734;243;1146;-77
2021/12/09 08:18:58;;;;;;;;;;;23.30;27.30;;;;;;486145;244;2182;-77
2021/12/09 08:20:59;;;;;;;;;;;23.40;27.30;;;;;;486920;243;1066;-77
2021/12/09 08:23:00;;;;;;;;;;;23.40;27.30;;;;;;486658;244;975;-77
2021/12/09 08:25:02;;;;;;;;;;;23.40;27.20;;;;;;486826;245;1148;-77
2021/12/09 08:27:03;;;;;;;;;;;23.70;27.00;;;;;;486588;243;1091;-77
2021/12/09 08:29:04;;;;;;;;;;;23.70;27.00;;;;;;486662;243;1037;-77
2021/12/09 08:31:05;;;;;;;;;;;24.10;26.70;;;;;;486541;243;1218;-77
2021/12/09 08:33:07;;;;;;;;;;;24.20;26.60;;;;;;486666;243;990;-77
2021/12/09 08:35:08;;;;;;;;;;;24.30;26.60;;;;;;486734;243;1204;-77
2021/12/09 08:37:10;;;;;;;;;;;24.60;26.30;;;;;;486539;245;1079;-77
2021/12/09 08:39:11;;;;;;;;;;;24.50;26.30;;;;;;486653;243;2178;-77
2021/12/09 08:41:14;;;;;;;;;;;24.40;26.30;;;;;;486692;244;1266;-77
2021/12/09 08:43:14;;;;;;;;;;;24.40;26.40;;;;;;486703;243;1219;-77
2021/12/09 08:45:15;;;;;;;;;;;24.60;26.30;;;;;;486801;241;1209;-77
2021/12/09 08:47:16;;;;;;;;;;;24.70;26.10;;;;;;486628;243;1062;-77
2021/12/09 08:49:18;;;;;;;;;;;24.50;26.30;;;;;;486527;243;976;-77
2021/12/09 08:51:19;;;;;;;;;;;24.30;26.50;;;;;;486471;244;1376;-77
2021/12/09 08:53:21;;;;;;;;;;;24.40;26.30;;;;;;486772;243;1153;-77
2021/12/09 08:55:22;;;;;;;;;;;24.40;26.40;;;;;;486688;244;1160;-77
2021/12/09 08:57:23;;;;;;;;;;;24.30;26.50;;;;;;486620;243;1117;-77
2021/12/09 08:59:25;;;;;;;;;;;24.10;26.60;;;;;;486666;243;2135;-77
2021/12/09 09:01:26;;;;;;;;;;;24.10;26.60;;;;;;486493;243;1316;-77
2021/12/09 09:03:27;;;;;;;;;;;23.90;26.90;;;;;;486769;243;1049;-77
2021/12/09 09:05:29;;;;;;;;;;;23.90;26.80;;;;;;486793;243;985;-77
2021/12/09 09:07:30;;;;;;;;;;;24.00;26.90;;;;;;486582;243;1155;-77
2021/12/09 09:09:34;;;;;;;;;;;24.00;26.80;;;;;;486655;244;1114;-77
2021/12/09 09:11:34;;;;;;;;;;;23.80;26.90;;;;;;486565;243;1506;-77
2021/12/09 09:13:35;;;;;;;;;;;23.80;27.00;;;;;;486604;243;982;-77
2021/12/09 09:15:37;;;;;;;;;;;24.00;26.80;;;;;;486555;243;1054;-77
2021/12/09 09:17:38;;;;;;;;;;;23.80;27.00;;;;;;486660;243;1030;-77
2021/12/09 09:19:39;;;;;;;;;;;23.70;27.10;;;;;;486480;243;2173;-77
2021/12/09 09:21:42;;;;;;;;;;;23.70;27.10;;;;;;486553;244;1200;-76
2021/12/09 09:23:42;;;;;;;;;;;23.80;27.00;;;;;;486773;244;1368;-77
2021/12/09 09:25:43;;;;;;;;;;;23.80;27.00;;;;;;486659;244;1297;-77
2021/12/09 09:27:45;;;;;;;;;;;23.60;27.10;;;;;;486941;243;1241;-77
2021/12/09 09:29:46;;;;;;;;;;;23.70;27.20;;;;;;486867;243;995;-77
2021/12/09 09:31:47;;;;;;;;;;;23.80;27.00;;;;;;486871;243;1369;-77
2021/12/09 09:33:49;;;;;;;;;;;23.70;27.10;;;;;;486707;243;968;-76
2021/12/09 09:35:50;;;;;;;;;;;23.70;27.20;;;;;;486685;243;1588;-77
2021/12/09 09:37:51;;;;;;;;;;;23.50;27.20;;;;;;486892;243;1046;-77
2021/12/09 09:39:53;;;;;;;;;;;23.70;27.20;;;;;;486399;243;2194;-77
2021/12/09 09:42:01;;;;;;;;;;;23.90;27.00;;;;;;486725;243;1079;-76
2021/12/09 09:44:10;;;;;;;;;;;23.70;27.10;;;;;;486339;244;2058;-76
2021/12/09 09:45:59;;;;;;;;;;;23.60;27.20;;;;;;485833;244;1431;-77
2021/12/09 09:48:01;;;;;;;;;;;23.70;27.10;;;;;;486639;243;1016;-77
2021/12/09 09:50:02;;;;;;;;;;;23.50;27.20;;;;;;486577;242;1027;-77
2021/12/09 09:52:05;;;;;;;;;;;23.50;27.40;;;;;;486394;245;1052;-77
2021/12/09 09:54:05;;;;;;;;;;;23.70;27.20;;;;;;486785;243;1277;-76
2021/12/09 09:56:13;;;;;;;;;;;23.60;27.20;;;;;;486534;245;1202;-76
2021/12/09 09:58:08;;;;;;;;;;;23.50;27.30;;;;;;486216;244;1369;-77
2021/12/09 10:00:09;;;;;;;;;;;23.50;27.30;;;;;;486496;242;2206;-77
2021/12/09 10:02:10;;;;;;;;;;;23.50;27.20;;;;;;486530;244;1000;-77
2021/12/09 10:04:14;;;;;;;;;;;23.60;27.20;;;;;;486612;241;984;-77
2021/12/09 10:06:13;;;;;;;;;;;23.60;27.20;;;;;;486464;243;1312;-76
2021/12/09 10:08:15;;;;;;;;;;;23.50;27.30;;;;;;486584;242;1010;-77
2021/12/09 10:10:16;;;;;;;;;;;23.60;27.30;;;;;;486490;242;1178;-77
2021/12/09 10:12:17;;;;;;;;;;;23.60;27.20;;;;;;486565;243;1087;-77
2021/12/09 10:14:19;;;;;;;;;;;23.50;27.40;;;;;;486955;243;1201;-77
2021/12/09 10:16:20;;;;;;;;;;;23.50;27.40;;;;;;486775;243;1208;-77
2021/12/09 10:18:22;;;;;;;;;;;23.60;27.30;;;;;;486628;243;982;-77
2021/12/09 10:20:23;;;;;;;;;;;23.60;27.20;;;;;;486689;242;2182;-76
2021/12/09 10:22:24;;;;;;;;;;;23.50;27.40;;;;;;486546;242;1009;-77
2021/12/09 10:24:26;;;;;;;;;;;23.50;27.40;;;;;;486742;242;1094;-77
2021/12/09 10:26:27;;;;;;;;;;;23.60;27.30;;;;;;486670;242;1229;-76
2021/12/09 10:28:28;;;;;;;;;;;23.50;27.40;;;;;;486687;244;1031;-77
2021/12/09 10:30:36;;;;;;;;;;;23.40;27.50;;;;;;486603;242;1614;-77
2021/12/09 10:32:33;;;;;;;;;;;23.70;27.40;;;;;;486122;244;1389;-77
2021/12/09 10:34:35;;;;;;;;;;;24.10;27.00;;;;;;486373;243;1396;-76
2021/12/09 10:36:35;;;;;;;;;;;24.40;26.70;;;;;;486479;240;1376;-77
2021/12/09 10:38:36;;;;;;;;;;;24.00;26.80;;;;;;486711;242;1024;-77
2021/12/09 10:40:37;;;;;;;;;;;24.10;26.80;;;;;;486591;243;2154;-77
2021/12/09 10:42:39;;;;;;;;;;;24.40;26.70;;;;;;486726;243;1053;-77
2021/12/09 10:44:40;;;;;;;;;;;24.60;26.60;;;;;;486459;243;1030;-76
2021/12/09 10:46:47;;;;;;;;;;;24.50;26.60;;;;;;486420;243;1441;-77
2021/12/09 10:48:44;;;;;;;;;;;24.40;26.70;;;;;;486370;244;1335;-77
2021/12/09 10:50:48;;;;;;;;;;;24.30;26.70;;;;;;486530;244;1346;-76
2021/12/09 10:52:49;;;;;;;;;;;24.50;26.60;;;;;;486499;243;1182;-77
2021/12/09 10:54:47;;;;;;;;;;;24.60;26.50;;;;;;486611;243;1390;-76
2021/12/09 10:56:48;;;;;;;;;;;24.20;26.70;;;;;;486711;242;1164;-77
2021/12/09 10:58:49;;;;;;;;;;;24.10;26.80;;;;;;487157;242;1116;-77
2021/12/09 11:00:52;;;;;;;;;;;24.10;26.90;;;;;;486597;242;2198;-77
2021/12/09 11:02:53;;;;;;;;;;;24.30;26.90;;;;;;486891;243;1392;-77
2021/12/09 11:04:54;;;;;;;;;;;24.50;26.60;;;;;;486863;242;1036;-77
2021/12/09 11:06:56;;;;;;;;;;;24.50;26.60;;;;;;486640;243;1333;-77
2021/12/09 11:08:57;;;;;;;;;;;24.40;26.70;;;;;;486901;244;1338;-76
2021/12/09 11:10:58;;;;;;;;;;;24.20;26.80;;;;;;486781;244;1017;-77
2021/12/09 11:13:00;;;;;;;;;;;24.20;26.80;;;;;;486676;242;1172;-77
2021/12/09 11:15:02;;;;;;;;;;;24.40;26.60;;;;;;486991;243;1487;-76
2021/12/09 11:17:02;;;;;;;;;;;24.30;26.80;;;;;;486834;243;1391;-77
2021/12/09 11:19:04;;;;;;;;;;;24.10;26.90;;;;;;486607;243;1072;-77
2021/12/09 11:21:05;;;;;;;;;;;24.20;26.80;;;;;;486694;243;2187;-77
2021/12/09 11:23:06;;;;;;;;;;;24.30;26.80;;;;;;486769;243;1481;-77
2021/12/09 11:25:07;;;;;;;;;;;24.30;26.70;;;;;;486412;243;1035;-77
2021/12/09 11:27:09;;;;;;;;;;;24.40;26.80;;;;;;486370;243;1181;-77
2021/12/09 11:29:10;;;;;;;;;;;24.40;26.60;;;;;;486607;243;1432;-77
2021/12/09 11:31:16;;;;;;;;;;;24.60;26.50;;;;;;486681;242;1213;-77
2021/12/09 11:33:15;;;;;;;;;;;24.60;26.50;;;;;;486322;244;1427;-77
2021/12/09 11:35:16;;;;;;;;;;;24.60;26.40;;;;;;486361;240;1537;-76
2021/12/09 11:37:40;;;;;;;;;;;24.50;26.60;;;;;;486873;244;1401;-77
2021/12/09 11:39:38;;;;;;;;;;;24.50;26.60;;;;;;486450;244;1322;-77
2021/12/09 11:41:40;;;;;;;;;;;24.40;26.70;;;;;;486763;241;2189;-77
2021/12/09 11:43:41;;;;;;;;;;;24.50;26.60;;;;;;486490;244;1418;-77
2021/12/09 11:45:41;;;;;;;;;;;24.60;26.60;;;;;;486578;243;1432;-77
2021/12/09 11:47:43;;;;;;;;;;;24.80;26.50;;;;;;486631;243;1066;-77
2021/12/09 11:49:44;;;;;;;;;;;25.20;26.20;;;;;;486594;243;1170;-77
2021/12/09 11:51:45;;;;;;;;;;;25.20;26.10;;;;;;486541;243;1102;-77
2021/12/09 11:53:54;;;;;;;;;;;25.30;26.10;;;;;;486500;243;1070;-77
2021/12/09 11:55:58;;;;;;;;;;;24.90;26.20;;;;;;486282;244;1287;-77
2021/12/09 11:57:55;;;;;;;;;;;25.10;26.20;;;;;;485853;244;1394;-77
2021/12/09 12:06:49;;;;;;;;;;;25.50;26.00;;;;;;486545;242;1085;-77